createdAt,value
2017-09-13T00:00:20.474Z,975.35
2017-09-13T00:01:20.513Z,975.35
2017-09-13T00:02:20.550Z,975.41
2017-09-13T00:03:20.595Z,975.36
2017-09-13T00:04:20.631Z,975.37
2017-09-13T00:05:20.669Z,975.34
2017-09-13T00:06:20.712Z,975.36
2017-09-13T00:07:20.751Z,975.31
2017-09-13T00:08:20.792Z,975.29
2017-09-13T00:09:20.832Z,975.28
2017-09-13T00:10:20.872Z,975.31
2017-09-13T00:11:20.911Z,975.27
2017-09-13T00:12:20.955Z,975.28
2017-09-13T00:13:20.994Z,975.28
2017-09-13T00:14:21.031Z,975.29
2017-09-13T00:15:21.075Z,975.28
2017-09-13T00:16:21.114Z,975.26
2017-09-13T00:17:21.152Z,975.20
2017-09-13T00:18:21.197Z,975.18
2017-09-13T00:19:21.236Z,975.19
2017-09-13T00:20:21.275Z,975.20
2017-09-13T00:21:21.314Z,975.17
2017-09-13T00:22:21.358Z,975.14
2017-09-13T00:23:21.394Z,975.15
2017-09-13T00:24:21.437Z,975.10
2017-09-13T00:25:21.475Z,975.11
2017-09-13T00:26:21.514Z,975.13
2017-09-13T00:27:21.561Z,975.08
2017-09-13T00:28:21.598Z,975.08
2017-09-13T00:29:21.636Z,975.09
2017-09-13T00:30:21.676Z,975.08
2017-09-13T00:31:21.737Z,975.09
2017-09-13T00:32:21.757Z,975.09
2017-09-13T00:33:21.796Z,975.12
2017-09-13T00:34:21.836Z,975.08
2017-09-13T00:35:21.878Z,975.08
2017-09-13T00:36:21.918Z,975.13
2017-09-13T00:37:21.957Z,975.11
2017-09-13T00:38:21.999Z,975.14
2017-09-13T00:39:22.040Z,975.14
2017-09-13T00:40:22.078Z,975.11
2017-09-13T00:41:22.120Z,975.07
2017-09-13T00:42:22.160Z,975.11
2017-09-13T00:43:22.198Z,975.02
2017-09-13T00:44:22.241Z,975.01
2017-09-13T00:45:22.278Z,975.05
2017-09-13T00:46:22.318Z,975.03
2017-09-13T00:47:22.361Z,975.02
2017-09-13T00:48:22.406Z,974.98
2017-09-13T00:49:22.443Z,975.01
2017-09-13T00:50:22.480Z,974.97
2017-09-13T00:51:22.520Z,975.00
2017-09-13T00:52:22.561Z,975.02
2017-09-13T00:53:22.603Z,975.01
2017-09-13T00:54:22.642Z,975.04
2017-09-13T00:55:22.682Z,975.01
2017-09-13T00:56:22.725Z,974.98
2017-09-13T00:57:22.769Z,975.01
2017-09-13T00:58:22.802Z,974.97
2017-09-13T00:59:22.844Z,974.96
2017-09-13T01:00:22.886Z,974.97
2017-09-13T01:01:22.921Z,974.93
2017-09-13T01:02:22.966Z,974.94
2017-09-13T01:03:23.002Z,974.99
2017-09-13T01:04:23.043Z,974.94
2017-09-13T01:05:23.082Z,974.98
2017-09-13T01:06:23.123Z,974.94
2017-09-13T01:07:23.164Z,974.94
2017-09-13T01:08:23.224Z,974.99
2017-09-13T01:09:23.244Z,975.00
2017-09-13T01:10:23.284Z,974.96
2017-09-13T01:11:23.325Z,974.94
2017-09-13T01:12:23.366Z,974.94
2017-09-13T01:13:23.407Z,974.96
2017-09-13T01:14:23.444Z,974.99
2017-09-13T01:15:23.485Z,974.99
2017-09-13T01:16:23.525Z,974.97
2017-09-13T01:17:23.566Z,975.00
2017-09-13T01:18:23.606Z,974.96
2017-09-13T01:19:23.647Z,974.94
2017-09-13T01:20:23.690Z,974.92
2017-09-13T01:21:23.725Z,974.95
2017-09-13T01:22:23.780Z,974.90
2017-09-13T01:23:23.806Z,974.92
2017-09-13T01:24:23.847Z,974.94
2017-09-13T01:25:23.887Z,974.87
2017-09-13T01:26:23.929Z,974.82
2017-09-13T01:27:23.967Z,974.85
2017-09-13T01:28:24.008Z,974.86
2017-09-13T01:29:24.048Z,974.81
2017-09-13T01:30:24.089Z,974.90
2017-09-13T01:31:24.132Z,974.84
2017-09-13T01:32:24.170Z,974.82
2017-09-13T01:33:24.210Z,974.81
2017-09-13T01:34:24.247Z,974.85
2017-09-13T01:35:24.292Z,974.75
2017-09-13T01:36:24.329Z,974.78
2017-09-13T01:37:24.369Z,974.79
2017-09-13T01:38:24.407Z,974.71
2017-09-13T01:39:24.450Z,974.67
2017-09-13T01:40:24.496Z,974.64
2017-09-13T01:41:24.528Z,974.62
2017-09-13T01:42:24.571Z,974.66
2017-09-13T01:43:24.608Z,974.62
2017-09-13T01:44:24.651Z,974.55
2017-09-13T01:45:24.689Z,974.55
2017-09-13T01:46:24.731Z,974.56
2017-09-13T01:47:24.769Z,974.53
2017-09-13T01:48:24.810Z,974.59
2017-09-13T01:49:24.854Z,974.51
2017-09-13T01:50:24.890Z,974.47
2017-09-13T01:51:24.933Z,974.48
2017-09-13T01:52:24.974Z,974.52
2017-09-13T01:53:25.010Z,974.42
2017-09-13T01:54:25.050Z,974.42
2017-09-13T01:55:25.104Z,974.41
2017-09-13T01:56:25.132Z,974.44
2017-09-13T01:57:25.172Z,974.44
2017-09-13T01:58:25.215Z,974.44
2017-09-13T01:59:25.251Z,974.42
2017-09-13T02:00:25.290Z,974.40
2017-09-13T02:01:25.333Z,974.35
2017-09-13T02:02:25.376Z,974.34
2017-09-13T02:03:25.411Z,974.39
2017-09-13T02:04:25.454Z,974.39
2017-09-13T02:05:25.493Z,974.42
2017-09-13T02:06:25.537Z,974.42
2017-09-13T02:07:25.573Z,974.44
2017-09-13T02:08:25.615Z,974.42
2017-09-13T02:09:25.651Z,974.43
2017-09-13T02:10:25.700Z,974.45
2017-09-13T02:11:25.737Z,974.46
2017-09-13T02:12:25.773Z,974.42
2017-09-13T02:13:25.812Z,974.43
2017-09-13T02:14:25.860Z,974.46
2017-09-13T02:15:25.904Z,974.44
2017-09-13T02:16:25.932Z,974.41
2017-09-13T02:17:25.973Z,974.37
2017-09-13T02:18:26.039Z,974.34
2017-09-13T02:19:26.054Z,974.31
2017-09-13T02:20:26.093Z,974.34
2017-09-13T02:21:26.135Z,974.29
2017-09-13T02:22:26.173Z,974.26
2017-09-13T02:23:26.215Z,974.24
2017-09-13T02:24:26.256Z,974.16
2017-09-13T02:25:26.293Z,974.15
2017-09-13T02:26:26.333Z,974.20
2017-09-13T02:27:26.377Z,974.20
2017-09-13T02:28:26.415Z,974.17
2017-09-13T02:29:26.453Z,974.12
2017-09-13T02:30:26.497Z,974.13
2017-09-13T02:31:26.533Z,974.13
2017-09-13T02:32:26.576Z,974.12
2017-09-13T02:33:26.615Z,974.03
2017-09-13T02:34:26.660Z,974.04
2017-09-13T02:35:26.695Z,974.04
2017-09-13T02:36:26.738Z,973.99
2017-09-13T02:37:26.775Z,973.95
2017-09-13T02:38:26.817Z,973.93
2017-09-13T02:39:26.887Z,973.95
2017-09-13T02:40:26.898Z,974.01
2017-09-13T02:41:26.957Z,973.99
2017-09-13T02:42:26.980Z,974.06
2017-09-13T02:43:27.015Z,974.06
2017-09-13T02:44:27.055Z,974.04
2017-09-13T02:45:27.094Z,974.03
2017-09-13T02:46:27.134Z,974.03
2017-09-13T02:47:27.175Z,973.94
2017-09-13T02:48:27.215Z,973.94
2017-09-13T02:49:27.256Z,973.87
2017-09-13T02:50:27.296Z,973.88
2017-09-13T02:51:27.335Z,973.87
2017-09-13T02:52:27.376Z,973.86
2017-09-13T02:53:27.418Z,973.81
2017-09-13T02:54:27.457Z,973.81
2017-09-13T02:55:27.496Z,973.87
2017-09-13T02:56:27.540Z,973.80
2017-09-13T02:57:27.578Z,973.80
2017-09-13T02:58:27.615Z,973.82
2017-09-13T02:59:27.656Z,973.78
2017-09-13T03:00:27.695Z,973.76
2017-09-13T03:01:27.735Z,973.77
2017-09-13T03:02:27.779Z,973.71
2017-09-13T03:03:27.815Z,973.80
2017-09-13T03:04:27.856Z,973.81
2017-09-13T03:05:27.899Z,973.80
2017-09-13T03:06:27.938Z,973.79
2017-09-13T03:07:27.976Z,973.83
2017-09-13T03:08:28.018Z,973.79
2017-09-13T03:09:28.060Z,973.82
2017-09-13T03:10:28.096Z,973.80
2017-09-13T03:11:28.135Z,973.80
2017-09-13T03:12:28.183Z,973.77
2017-09-13T03:13:28.220Z,973.72
2017-09-13T03:14:28.256Z,973.66
2017-09-13T03:15:28.301Z,973.59
2017-09-13T03:16:28.337Z,973.61
2017-09-13T03:17:28.376Z,973.58
2017-09-13T03:18:28.415Z,973.54
2017-09-13T03:19:28.456Z,973.50
2017-09-13T03:20:28.496Z,973.47
2017-09-13T03:21:28.536Z,973.41
2017-09-13T03:22:28.575Z,973.35
2017-09-13T03:23:28.617Z,973.34
2017-09-13T03:24:28.657Z,973.25
2017-09-13T03:25:28.697Z,973.27
2017-09-13T03:26:28.736Z,973.26
2017-09-13T03:27:28.779Z,973.29
2017-09-13T03:28:28.817Z,973.28
2017-09-13T03:29:28.855Z,973.22
2017-09-13T03:30:28.897Z,973.20
2017-09-13T03:31:28.939Z,973.17
2017-09-13T03:32:28.977Z,973.24
2017-09-13T03:33:29.018Z,973.24
2017-09-13T03:34:29.058Z,973.24
2017-09-13T03:35:29.098Z,973.22
2017-09-13T03:36:29.137Z,973.22
2017-09-13T03:37:29.182Z,973.20
2017-09-13T03:38:29.216Z,973.21
2017-09-13T03:39:29.256Z,973.17
2017-09-13T03:40:29.298Z,973.17
2017-09-13T03:41:29.340Z,973.08
2017-09-13T03:42:29.378Z,973.08
2017-09-13T03:43:29.416Z,973.03
2017-09-13T03:44:29.456Z,973.01
2017-09-13T03:45:29.497Z,973.01
2017-09-13T03:46:29.537Z,972.99
2017-09-13T03:47:29.577Z,972.95
2017-09-13T03:48:29.618Z,972.92
2017-09-13T03:49:29.656Z,972.91
2017-09-13T03:50:29.696Z,972.87
2017-09-13T03:51:29.740Z,972.92
2017-09-13T03:52:29.777Z,972.81
2017-09-13T03:53:29.816Z,972.83
2017-09-13T03:54:29.871Z,972.77
2017-09-13T03:55:29.898Z,972.70
2017-09-13T03:56:29.937Z,972.73
2017-09-13T03:57:29.979Z,972.63
2017-09-13T03:58:30.016Z,972.57
2017-09-13T03:59:30.056Z,972.59
2017-09-13T04:00:30.100Z,972.60
2017-09-13T04:01:30.139Z,972.58
2017-09-13T04:02:30.177Z,972.57
2017-09-13T04:03:30.216Z,972.55
2017-09-13T04:04:30.263Z,972.66
2017-09-13T04:05:30.296Z,972.62
2017-09-13T04:06:30.339Z,972.74
2017-09-13T04:07:30.376Z,972.80
2017-09-13T04:08:30.416Z,972.77
2017-09-13T04:09:30.456Z,972.75
2017-09-13T04:10:30.495Z,972.75
2017-09-13T04:11:30.537Z,972.75
2017-09-13T04:12:30.578Z,972.72
2017-09-13T04:13:30.615Z,972.65
2017-09-13T04:14:30.656Z,972.76
2017-09-13T04:15:30.695Z,972.70
2017-09-13T04:16:30.737Z,972.72
2017-09-13T04:17:30.777Z,972.71
2017-09-13T04:18:30.816Z,972.74
2017-09-13T04:19:30.855Z,972.75
2017-09-13T04:20:30.896Z,972.80
2017-09-13T04:21:30.937Z,972.86
2017-09-13T04:22:30.975Z,972.84
2017-09-13T04:23:31.019Z,972.80
2017-09-13T04:24:31.060Z,972.81
2017-09-13T04:25:31.095Z,972.77
2017-09-13T04:26:31.138Z,972.71
2017-09-13T04:27:31.183Z,972.72
2017-09-13T04:28:31.223Z,972.72
2017-09-13T04:29:31.257Z,972.70
2017-09-13T04:30:31.295Z,972.72
2017-09-13T04:31:31.336Z,972.73
2017-09-13T04:32:31.380Z,972.77
2017-09-13T04:33:31.416Z,972.77
2017-09-13T04:34:31.458Z,972.70
2017-09-13T04:35:31.495Z,972.71
2017-09-13T04:36:31.536Z,972.68
2017-09-13T04:37:31.575Z,972.73
2017-09-13T04:38:31.614Z,972.68
2017-09-13T04:39:31.656Z,972.66
2017-09-13T04:40:31.697Z,972.64
2017-09-13T04:41:31.736Z,972.64
2017-09-13T04:42:31.774Z,972.63
2017-09-13T04:43:31.821Z,972.64
2017-09-13T04:44:31.854Z,972.58
2017-09-13T04:45:31.978Z,972.52
2017-09-13T04:46:31.934Z,972.57
2017-09-13T04:47:31.975Z,972.57
2017-09-13T04:48:32.014Z,972.55
2017-09-13T04:49:32.166Z,972.49
2017-09-13T04:50:32.097Z,972.43
2017-09-13T04:51:32.216Z,972.43
2017-09-13T04:52:32.178Z,972.38
2017-09-13T04:53:32.297Z,972.38
2017-09-13T04:54:32.254Z,972.36
2017-09-13T04:55:32.294Z,972.36
2017-09-13T04:56:32.336Z,972.43
2017-09-13T04:57:32.374Z,972.40
2017-09-13T04:58:32.507Z,972.40
2017-09-13T04:59:32.462Z,972.43
2017-09-13T05:00:32.493Z,972.40
2017-09-13T05:01:32.532Z,972.31
2017-09-13T05:02:32.574Z,972.31
2017-09-13T05:03:32.615Z,972.22
2017-09-13T05:04:32.659Z,972.15
2017-09-13T05:05:32.693Z,972.13
2017-09-13T05:06:32.735Z,972.14
2017-09-13T05:07:32.773Z,972.19
2017-09-13T05:08:32.814Z,972.13
2017-09-13T05:09:32.858Z,972.12
2017-09-13T05:10:32.895Z,972.04
2017-09-13T05:11:32.933Z,972.01
2017-09-13T05:12:32.974Z,972.02
2017-09-13T05:13:33.013Z,971.99
2017-09-13T05:14:33.078Z,972.02
2017-09-13T05:15:33.095Z,972.08
2017-09-13T05:16:33.135Z,972.04
2017-09-13T05:17:33.172Z,972.00
2017-09-13T05:18:33.214Z,972.00
2017-09-13T05:19:33.259Z,971.91
2017-09-13T05:20:33.293Z,971.94
2017-09-13T05:21:33.338Z,971.89
2017-09-13T05:22:33.372Z,971.81
2017-09-13T05:23:33.413Z,971.72
2017-09-13T05:24:33.453Z,971.79
2017-09-13T05:25:33.491Z,971.77
2017-09-13T05:26:33.533Z,971.79
2017-09-13T05:27:33.575Z,971.75
2017-09-13T05:28:33.614Z,971.69
2017-09-13T05:29:33.657Z,971.62
2017-09-13T05:30:33.694Z,971.64
2017-09-13T05:31:33.739Z,971.64
2017-09-13T05:32:33.775Z,971.62
2017-09-13T05:33:33.812Z,971.61
2017-09-13T05:34:33.852Z,971.61
2017-09-13T05:35:33.899Z,971.56
2017-09-13T05:36:33.937Z,971.42
2017-09-13T05:37:33.974Z,971.37
2017-09-13T05:38:34.013Z,971.34
2017-09-13T05:39:34.053Z,971.29
2017-09-13T05:40:34.092Z,971.24
2017-09-13T05:41:34.138Z,971.20
2017-09-13T05:42:34.174Z,971.07
2017-09-13T05:43:34.213Z,971.13
2017-09-13T05:44:34.251Z,971.00
2017-09-13T05:45:34.290Z,971.03
2017-09-13T05:46:34.332Z,971.04
2017-09-13T05:47:34.374Z,971.10
2017-09-13T05:48:34.410Z,971.07
2017-09-13T05:49:34.448Z,971.14
2017-09-13T05:50:34.488Z,971.07
2017-09-13T05:51:34.531Z,971.11
2017-09-13T05:52:34.571Z,971.14
2017-09-13T05:53:34.607Z,971.09
2017-09-13T05:54:34.649Z,971.10
2017-09-13T05:55:34.687Z,971.10
2017-09-13T05:56:34.728Z,971.09
2017-09-13T05:57:34.769Z,971.08
2017-09-13T05:58:34.805Z,971.03
2017-09-13T05:59:34.847Z,971.10
2017-09-13T06:00:34.886Z,971.08
2017-09-13T06:01:34.924Z,971.02
2017-09-13T06:02:34.965Z,970.96
2017-09-13T06:03:35.012Z,970.97
2017-09-13T06:04:35.047Z,970.95
2017-09-13T06:05:35.140Z,970.93
2017-09-13T06:06:35.124Z,970.88
2017-09-13T06:07:35.164Z,970.79
2017-09-13T06:08:35.206Z,970.85
2017-09-13T06:09:35.245Z,970.79
2017-09-13T06:10:35.281Z,970.70
2017-09-13T06:11:35.385Z,970.71
2017-09-13T06:12:35.362Z,970.64
2017-09-13T06:13:35.500Z,970.63
2017-09-13T06:14:35.441Z,970.62
2017-09-13T06:15:35.506Z,970.57
2017-09-13T06:16:35.523Z,970.54
2017-09-13T06:17:35.561Z,970.51
2017-09-13T06:18:35.602Z,970.43
2017-09-13T06:19:35.642Z,970.37
2017-09-13T06:20:35.681Z,970.36
2017-09-13T06:21:35.720Z,970.31
2017-09-13T06:22:35.759Z,970.25
2017-09-13T06:23:35.892Z,970.26
2017-09-13T06:24:35.855Z,970.26
2017-09-13T06:25:36.056Z,970.24
2017-09-13T06:26:35.921Z,970.23
2017-09-13T06:27:35.964Z,970.15
2017-09-13T06:28:36.086Z,970.08
2017-09-13T06:29:36.040Z,970.10
2017-09-13T06:30:36.081Z,969.95
2017-09-13T06:31:36.121Z,969.95
2017-09-13T06:32:36.161Z,969.91
2017-09-13T06:33:36.285Z,969.80
2017-09-13T06:34:36.241Z,969.83
2017-09-13T06:35:36.284Z,969.80
2017-09-13T06:36:36.324Z,969.80
2017-09-13T06:37:36.361Z,969.67
2017-09-13T06:38:36.402Z,969.72
2017-09-13T06:39:36.442Z,969.74
2017-09-13T06:40:36.484Z,969.71
2017-09-13T06:41:36.524Z,969.75
2017-09-13T06:42:36.563Z,969.68
2017-09-13T06:43:36.605Z,969.64
2017-09-13T06:44:36.643Z,969.54
2017-09-13T06:45:36.691Z,969.47
2017-09-13T06:46:36.721Z,969.54
2017-09-13T06:47:36.763Z,969.57
2017-09-13T06:48:36.803Z,969.53
2017-09-13T06:49:36.843Z,969.38
2017-09-13T06:50:36.885Z,969.32
2017-09-13T06:51:36.925Z,969.42
2017-09-13T06:52:36.971Z,969.39
2017-09-13T06:53:37.004Z,969.27
2017-09-13T06:54:37.044Z,969.27
2017-09-13T06:55:37.084Z,969.22
2017-09-13T06:56:37.124Z,969.18
2017-09-13T06:57:37.269Z,969.11
2017-09-13T06:58:37.205Z,969.13
2017-09-13T06:59:37.247Z,969.09
2017-09-13T07:00:37.292Z,969.07
2017-09-13T07:01:37.327Z,969.02
2017-09-13T07:02:37.382Z,969.09
2017-09-13T07:03:37.408Z,969.13
2017-09-13T07:04:37.447Z,969.19
2017-09-13T07:05:37.486Z,969.25
2017-09-13T07:06:37.552Z,969.13
2017-09-13T07:07:37.568Z,969.17
2017-09-13T07:08:37.613Z,969.14
2017-09-13T07:09:37.650Z,969.22
2017-09-13T07:10:37.708Z,969.12
2017-09-13T07:11:37.748Z,969.18
2017-09-13T07:12:37.769Z,969.22
2017-09-13T07:13:37.814Z,969.09
2017-09-13T07:14:37.863Z,969.18
2017-09-13T07:15:37.925Z,969.18
2017-09-13T07:16:37.933Z,969.26
2017-09-13T07:17:37.971Z,969.29
2017-09-13T07:18:38.095Z,969.33
2017-09-13T07:19:38.095Z,969.31
2017-09-13T07:20:38.091Z,969.35
2017-09-13T07:21:38.161Z,969.28
2017-09-13T07:22:38.175Z,969.24
2017-09-13T07:23:38.228Z,969.16
2017-09-13T07:24:38.277Z,969.15
2017-09-13T07:25:38.299Z,969.11
2017-09-13T07:26:38.337Z,969.05
2017-09-13T07:27:38.384Z,968.92
2017-09-13T07:28:38.637Z,968.97
2017-09-13T07:29:38.455Z,969.05
2017-09-13T07:30:38.504Z,969.15
2017-09-13T07:31:38.538Z,969.09
2017-09-13T07:32:38.578Z,969.24
2017-09-13T07:33:38.618Z,969.21
2017-09-13T07:34:38.660Z,969.24
2017-09-13T07:35:38.698Z,969.22
2017-09-13T07:36:38.741Z,969.31
2017-09-13T07:37:38.780Z,969.30
2017-09-13T07:38:38.940Z,969.40
2017-09-13T07:39:38.899Z,969.19
2017-09-13T07:40:38.950Z,969.30
2017-09-13T07:41:38.941Z,969.21
2017-09-13T07:42:38.985Z,969.13
2017-09-13T07:43:39.024Z,969.27
2017-09-13T07:44:39.067Z,969.23
2017-09-13T07:45:39.105Z,969.18
2017-09-13T07:46:39.143Z,969.23
2017-09-13T07:47:39.198Z,969.27
2017-09-13T07:48:39.225Z,969.26
2017-09-13T07:49:39.269Z,969.26
2017-09-13T07:50:39.306Z,969.31
2017-09-13T07:51:39.347Z,969.22
2017-09-13T07:52:39.392Z,969.27
2017-09-13T07:53:39.429Z,969.26
2017-09-13T07:54:39.470Z,969.20
2017-09-13T07:55:39.513Z,969.05
2017-09-13T07:56:39.554Z,969.16
2017-09-13T07:57:39.590Z,969.11
2017-09-13T07:58:40.410Z,969.09
2017-09-13T07:59:39.673Z,969.04
2017-09-13T08:00:39.716Z,969.13
2017-09-13T08:01:39.756Z,969.01
2017-09-13T08:02:39.799Z,969.02
2017-09-13T08:03:39.835Z,969.07
2017-09-13T08:04:39.877Z,969.05
2017-09-13T08:05:39.916Z,969.07
2017-09-13T08:06:39.956Z,969.01
2017-09-13T08:07:41.085Z,969.09
2017-09-13T08:08:40.081Z,968.88
2017-09-13T08:09:40.079Z,968.97
2017-09-13T08:10:40.118Z,969.00
2017-09-13T08:11:40.180Z,968.74
2017-09-13T08:12:40.203Z,968.88
2017-09-13T08:13:40.302Z,968.85
2017-09-13T08:14:40.283Z,968.84
2017-09-13T08:15:40.428Z,968.98
2017-09-13T08:16:40.367Z,968.74
2017-09-13T08:17:40.407Z,968.76
2017-09-13T08:18:40.481Z,968.64
2017-09-13T08:19:40.489Z,968.69
2017-09-13T08:20:40.571Z,968.62
2017-09-13T08:21:40.618Z,968.62
2017-09-13T08:22:40.610Z,968.36
2017-09-13T08:23:40.649Z,968.52
2017-09-13T08:24:40.699Z,968.53
2017-09-13T08:25:40.733Z,968.48
2017-09-13T08:26:40.772Z,968.47
2017-09-13T08:27:40.813Z,968.47
2017-09-13T08:28:40.855Z,968.46
2017-09-13T08:29:40.900Z,968.43
2017-09-13T08:30:40.935Z,968.55
2017-09-13T08:31:40.975Z,968.63
2017-09-13T08:32:41.018Z,968.62
2017-09-13T08:33:41.056Z,968.48
2017-09-13T08:34:41.109Z,968.39
2017-09-13T08:35:41.140Z,968.50
2017-09-13T08:36:41.182Z,968.42
2017-09-13T08:37:41.221Z,968.55
2017-09-13T08:38:41.261Z,968.38
2017-09-13T08:39:41.306Z,968.47
2017-09-13T08:40:41.347Z,968.21
2017-09-13T08:41:41.392Z,968.30
2017-09-13T08:42:41.430Z,968.32
2017-09-13T08:43:41.473Z,968.31
2017-09-13T08:44:41.509Z,968.46
2017-09-13T08:45:41.551Z,968.32
2017-09-13T08:46:41.599Z,968.41
2017-09-13T08:47:41.631Z,968.21
2017-09-13T08:48:41.675Z,968.40
2017-09-13T08:49:41.734Z,968.47
2017-09-13T08:50:41.754Z,968.56
2017-09-13T08:51:41.798Z,968.37
2017-09-13T08:52:41.841Z,968.40
2017-09-13T08:53:41.894Z,968.25
2017-09-13T08:54:41.918Z,968.31
2017-09-13T08:55:41.958Z,968.38
2017-09-13T08:56:42.000Z,968.31
2017-09-13T08:57:42.042Z,968.39
2017-09-13T08:58:42.086Z,968.35
2017-09-13T08:59:42.125Z,968.34
2017-09-13T09:00:42.167Z,968.37
2017-09-13T09:01:42.205Z,968.31
2017-09-13T09:02:42.257Z,968.40
2017-09-13T09:03:42.291Z,968.38
2017-09-13T09:04:42.329Z,968.26
2017-09-13T09:05:42.379Z,968.37
2017-09-13T09:06:42.415Z,968.27
2017-09-13T09:07:42.453Z,968.33
2017-09-13T09:08:42.496Z,968.31
2017-09-13T09:09:42.540Z,968.49
2017-09-13T09:10:42.577Z,968.31
2017-09-13T09:11:42.628Z,968.28
2017-09-13T09:12:42.662Z,968.19
2017-09-13T09:13:42.701Z,968.21
2017-09-13T09:14:42.753Z,968.24
2017-09-13T09:15:42.785Z,968.32
2017-09-13T09:16:42.835Z,968.26
2017-09-13T09:17:42.867Z,968.19
2017-09-13T09:18:42.911Z,968.21
2017-09-13T09:19:42.953Z,968.17
2017-09-13T09:20:42.994Z,968.31
2017-09-13T09:21:43.036Z,968.46
2017-09-13T09:22:43.076Z,968.29
2017-09-13T09:23:43.119Z,968.52
2017-09-13T09:24:43.196Z,968.55
2017-09-13T09:25:43.200Z,968.50
2017-09-13T09:26:43.247Z,968.44
2017-09-13T09:27:43.287Z,968.41
2017-09-13T09:28:43.328Z,968.36
2017-09-13T09:29:43.377Z,968.36
2017-09-13T09:30:43.454Z,968.45
2017-09-13T09:31:43.453Z,968.54
2017-09-13T09:32:43.504Z,968.39
2017-09-13T09:33:43.537Z,968.37
2017-09-13T09:34:43.593Z,968.24
2017-09-13T09:35:43.626Z,968.31
2017-09-13T09:36:43.784Z,968.61
2017-09-13T09:37:43.705Z,968.44
2017-09-13T09:38:43.747Z,968.46
2017-09-13T09:39:43.800Z,968.44
2017-09-13T09:40:43.832Z,968.54
2017-09-13T09:41:43.873Z,968.44
2017-09-13T09:42:43.923Z,968.58
2017-09-13T09:43:43.968Z,968.30
2017-09-13T09:44:44.004Z,968.29
2017-09-13T09:45:44.049Z,968.22
2017-09-13T09:46:44.082Z,968.29
2017-09-13T09:47:45.019Z,968.21
2017-09-13T09:48:44.173Z,968.29
2017-09-13T09:49:44.209Z,968.26
2017-09-13T09:50:44.252Z,968.40
2017-09-13T09:51:44.295Z,968.33
2017-09-13T09:52:44.336Z,968.30
2017-09-13T09:53:44.377Z,968.31
2017-09-13T09:54:44.421Z,968.23
2017-09-13T09:55:44.461Z,968.47
2017-09-13T09:56:44.506Z,968.24
2017-09-13T09:57:44.554Z,968.17
2017-09-13T09:58:44.588Z,968.23
2017-09-13T09:59:44.632Z,968.32
2017-09-13T10:00:44.672Z,968.12
2017-09-13T10:01:44.716Z,968.06
2017-09-13T10:02:44.756Z,968.03
2017-09-13T10:03:44.799Z,968.01
2017-09-13T10:04:44.841Z,967.97
2017-09-13T10:05:44.886Z,968.05
2017-09-13T10:06:44.928Z,968.10
2017-09-13T10:07:44.967Z,967.97
2017-09-13T10:08:45.012Z,968.00
2017-09-13T10:09:45.050Z,967.84
2017-09-13T10:10:45.096Z,967.81
2017-09-13T10:11:45.135Z,967.77
2017-09-13T10:12:45.189Z,967.92
2017-09-13T10:13:45.224Z,967.98
2017-09-13T10:14:45.263Z,967.87
2017-09-13T10:15:45.306Z,967.85
2017-09-13T10:16:45.348Z,967.91
2017-09-13T10:17:45.390Z,968.05
2017-09-13T10:18:45.437Z,968.04
2017-09-13T10:19:45.475Z,967.91
2017-09-13T10:20:45.524Z,967.94
2017-09-13T10:21:45.600Z,968.10
2017-09-13T10:22:45.603Z,968.21
2017-09-13T10:23:45.645Z,968.18
2017-09-13T10:24:45.695Z,968.22
2017-09-13T10:25:45.730Z,968.12
2017-09-13T10:26:45.768Z,968.20
2017-09-13T10:27:45.814Z,968.22
2017-09-13T10:28:45.855Z,968.22
2017-09-13T10:29:45.983Z,968.20
2017-09-13T10:30:45.941Z,968.26
2017-09-13T10:31:45.979Z,968.26
2017-09-13T10:32:46.028Z,968.22
2017-09-13T10:33:46.065Z,968.10
2017-09-13T10:34:46.112Z,968.08
2017-09-13T10:35:46.150Z,967.82
2017-09-13T10:36:46.191Z,967.96
2017-09-13T10:37:46.232Z,967.95
2017-09-13T10:38:46.274Z,967.69
2017-09-13T10:39:46.324Z,967.92
2017-09-13T10:40:46.361Z,967.92
2017-09-13T10:41:46.401Z,967.94
2017-09-13T10:42:46.443Z,967.81
2017-09-13T10:43:46.487Z,967.74
2017-09-13T10:44:46.528Z,967.83
2017-09-13T10:45:46.571Z,967.94
2017-09-13T10:46:46.609Z,967.70
2017-09-13T10:47:46.654Z,967.81
2017-09-13T10:48:46.698Z,968.08
2017-09-13T10:49:46.736Z,967.98
2017-09-13T10:50:46.779Z,967.78
2017-09-13T10:51:46.856Z,967.95
2017-09-13T10:52:46.867Z,968.18
2017-09-13T10:53:46.905Z,967.84
2017-09-13T10:54:46.953Z,968.07
2017-09-13T10:55:46.991Z,968.04
2017-09-13T10:56:47.031Z,967.87
2017-09-13T10:57:47.079Z,967.73
2017-09-13T10:58:47.126Z,968.19
2017-09-13T10:59:47.158Z,968.29
2017-09-13T11:00:47.204Z,968.21
2017-09-13T11:01:47.245Z,967.81
2017-09-13T11:02:47.286Z,967.69
2017-09-13T11:03:47.328Z,967.17
2017-09-13T11:04:47.370Z,967.42
2017-09-13T11:05:47.413Z,967.76
2017-09-13T11:06:47.454Z,967.82
2017-09-13T11:07:47.508Z,967.81
2017-09-13T11:08:47.536Z,967.86
2017-09-13T11:09:47.577Z,967.99
2017-09-13T11:10:47.625Z,967.93
2017-09-13T11:11:47.667Z,967.63
2017-09-13T11:12:47.709Z,967.72
2017-09-13T11:13:47.746Z,967.64
2017-09-13T11:14:47.789Z,967.61
2017-09-13T11:15:47.836Z,967.66
2017-09-13T11:16:47.883Z,967.60
2017-09-13T11:17:47.914Z,967.66
2017-09-13T11:18:47.970Z,967.52
2017-09-13T11:19:48.003Z,967.56
2017-09-13T11:20:48.040Z,967.60
2017-09-13T11:21:48.081Z,967.71
2017-09-13T11:22:48.167Z,967.59
2017-09-13T11:23:48.169Z,967.64
2017-09-13T11:24:48.209Z,967.85
2017-09-13T11:25:48.252Z,967.48
2017-09-13T11:26:48.295Z,967.64
2017-09-13T11:27:48.335Z,967.61
2017-09-13T11:28:48.377Z,967.58
2017-09-13T11:29:48.417Z,967.56
2017-09-13T11:30:48.458Z,967.54
2017-09-13T11:31:48.504Z,967.54
2017-09-13T11:32:48.545Z,967.65
2017-09-13T11:33:48.590Z,967.57
2017-09-13T11:34:48.629Z,967.63
2017-09-13T11:35:48.673Z,967.57
2017-09-13T11:36:48.715Z,967.64
2017-09-13T11:37:48.752Z,967.60
2017-09-13T11:38:48.799Z,967.55
2017-09-13T11:39:48.837Z,967.53
2017-09-13T11:40:48.883Z,967.64
2017-09-13T11:41:48.923Z,967.70
2017-09-13T11:42:48.963Z,967.66
2017-09-13T11:43:49.009Z,967.59
2017-09-13T11:44:49.055Z,967.73
2017-09-13T11:45:49.090Z,967.80
2017-09-13T11:46:49.139Z,967.67
2017-09-13T11:47:49.176Z,967.64
2017-09-13T11:48:49.311Z,967.74
2017-09-13T11:49:49.260Z,967.59
2017-09-13T11:50:49.304Z,967.62
2017-09-13T11:51:49.386Z,967.63
2017-09-13T11:52:49.387Z,967.57
2017-09-13T11:53:49.429Z,967.65
2017-09-13T11:54:49.486Z,967.62
2017-09-13T11:55:49.516Z,967.64
2017-09-13T11:56:49.557Z,967.63
2017-09-13T11:57:49.598Z,967.60
2017-09-13T11:58:49.643Z,967.52
2017-09-13T11:59:49.683Z,967.60
2017-09-13T12:00:49.725Z,967.50
2017-09-13T12:01:49.766Z,967.54
2017-09-13T12:02:49.808Z,967.57
2017-09-13T12:03:49.850Z,967.62
2017-09-13T12:04:49.901Z,967.62
2017-09-13T12:05:49.934Z,967.52
2017-09-13T12:06:49.979Z,967.61
2017-09-13T12:07:50.024Z,967.55
2017-09-13T12:08:50.119Z,967.48
2017-09-13T12:09:50.104Z,967.54
2017-09-13T12:10:50.174Z,967.58
2017-09-13T12:11:50.282Z,967.59
2017-09-13T12:12:50.232Z,967.54
2017-09-13T12:13:50.291Z,967.55
2017-09-13T12:14:50.317Z,967.50
2017-09-13T12:15:50.358Z,967.50
2017-09-13T12:16:50.402Z,967.46
2017-09-13T12:17:50.540Z,967.47
2017-09-13T12:18:50.542Z,967.43
2017-09-13T12:19:50.529Z,967.53
2017-09-13T12:20:50.570Z,967.44
2017-09-13T12:21:50.642Z,967.40
2017-09-13T12:22:50.769Z,967.41
2017-09-13T12:23:50.697Z,967.38
2017-09-13T12:24:51.517Z,967.31
2017-09-13T12:25:50.781Z,967.31
2017-09-13T12:26:50.833Z,967.37
2017-09-13T12:27:50.894Z,967.29
2017-09-13T12:28:50.905Z,967.37